Spokane, WA

6:14 AM PDT on April 21, 2015 (GMT -0700)
Felts | | Change Station
CLOSE
Current Station
Airport
Location: Spokane Felts,
Elevation: 1952 ft
Nearby Weather Stations

Elev 1952 ft 47.68 °N, 117.32 °W | Updated 21 minutes ago

Clear
Clear
42 °F
Feels Like 40 °F
N
4
Wind Variable Wind from NNE

Today
High -- | Low -- °F
--% Chance of Precip.
Yesterday
High -- | Low -- °F
Precip. -- in
5:49 AM 7:47 PM
Waxing Crescent, 10% visible
Pressure 29.84 in
Visibility 10.0 miles
Clouds Clear
Windchill 40 °F
Dew Point 37 °F
Humidity 82%
Rainfall 0.00 in
Snow Depth Not available.
UV 0 out of 12
Pollen 10.20 out of 12
Air Quality Not available.
Flu Activity Regional
METAR KSFF 211253Z 03003KT 10SM CLR 06/03 A2985 RMK AO2 SLP104 T00560028

More Conditions Fewer Conditions

Pressure 29.84 in
Visibility 10.0 miles
Clouds Clear
Windchill 40 °F
Dew Point 37 °F
Humidity 82%
Rainfall 0.00 in
Snow Depth Not available.
UV 0 out of 12
Pollen 10.20 out of 12
Air Quality Not available.
Flu Activity Regional
METAR KSFF 211253Z 03003KT 10SM CLR 06/03 A2985 RMK AO2 SLP104 T00560028

More Conditions Fewer Conditions

10-Day Weather Forecast

Almanac

Astronomy

Apr. 21, 2015 Rise Set
Actual Time
Civil Twilight
Nautical Twilight
Astronomical Twilight
Moon
Length of Visible Light
Length of Day
Tomorrow will be .
, % of the Moon is Illuminated

Today's Extremes

State Highs State Lows

Community

WunderPhotos

Upload Photos

1,815,370 photos uploaded!

WunderBlogs® & News

Nearby

Air Quality

  Air Quality AQ Index Pollutant
Not available.

Snow Depth

Station Depth Elevation

Earthquake Activity

City Distance Mag. Time & Date
Minimum magnitude displayed is 2.5.

Coastal Water Temperatures

Place Temperature

Stations

Nearby Weather Stations

Station Location Temp. Windchill Dew Point Humidity Wind Precip. Elev Updated Type